Dades meteomassalio
Diari Summary for Marc 2, 2017 Units:  English    Metric   Both
« Previous Day
Next Day »
Diari Semanal Mensual Anual Personalitzat
  Maxima: Minima: Mijana:
Temperatura: TemperatureC °F 5.7 °F 11.7 °F
Rosada: DewpointC °F 3.8 °F 6.5 °F
Humitat: Humidity % 44 % 72 %
Velocitat del vent: WindSpeedKMH mph 0.0 mph 2.6 mph
Racha vent: WindSpeedGustKMH mph - -
Vent:- - SE
Pressio: PressurehPa in 1016.1 in -
Pluja: 0.0 in    
Historical Graphs
 
 
Tabular Data for Marc 2, 2017
Time Temperature Dew Point Pressure Wind Wind Speed Wind Gust Humidity Rainfall Rate (Hourly) solar Conditions
TemperatureC °F DewpointC °F PressurehPa in Calm     Humidity % HourlyPrecipMM in SolarRadiationWatts/m^2 W/m2 Conditions
00:03 7.6 °F 5.4 °F 1020.2 in Calm     86 % 0.0 in 0.0 W/m2 CLR
00:08 7.6 °F 5.4 °F 1020.2 in Calm     86 % 0.0 in 0.0 W/m2 CLR
00:13 7.6 °F 5.2 °F 1020.2 in Calm     85 % 0.0 in 0.0 W/m2 CLR
00:18 7.5 °F 5.2 °F 1020.2 in Calm     85 % 0.0 in 0.0 W/m2 CLR
00:23 7.3 °F 4.9 °F 1020.2 in Calm     85 % 0.0 in 0.0 W/m2 CLR
00:28 7.1 °F 4.9 °F 1020.2 in Calm     86 % 0.0 in 0.0 W/m2 CLR
00:33 7.0 °F 4.8 °F 1020.2 in Calm     86 % 0.0 in 0.0 W/m2 CLR
00:38 6.9 °F 4.8 °F 1020.2 in Calm     86 % 0.0 in 0.0 W/m2 CLR
00:43 6.9 °F 4.9 °F 1020.5 in Calm     87 % 0.0 in 0.0 W/m2 CLR
00:48 6.8 °F 4.8 °F 1020.2 in Calm     87 % 0.0 in 0.0 W/m2 CLR
00:53 6.8 °F 4.8 °F 1020.2 in Calm     87 % 0.0 in 0.0 W/m2 CLR
00:58 6.8 °F 4.8 °F 1020.2 in Calm     87 % 0.0 in 0.0 W/m2 CLR
01:03 6.8 °F 5.0 °F 1020.5 in Calm     88 % 0.0 in 0.0 W/m2 CLR
01:08 6.9 °F 5.1 °F 1020.5 in Calm     88 % 0.0 in 0.0 W/m2 CLR
01:13 7.0 °F 5.2 °F 1020.5 in Calm     88 % 0.0 in 0.0 W/m2 CLR
01:18 7.2 °F 5.3 °F 1020.5 in Calm     88 % 0.0 in 0.0 W/m2 CLR
01:23 7.2 °F 5.2 °F 1020.5 in Calm     87 % 0.0 in 0.0 W/m2 CLR
01:28 7.3 °F 5.3 °F 1020.5 in Calm     87 % 0.0 in 0.0 W/m2 CLR
01:33 7.3 °F 5.3 °F 1020.5 in Calm     87 % 0.0 in 0.0 W/m2 CLR
01:38 7.4 °F 5.4 °F 1020.5 in Calm     87 % 0.0 in 0.0 W/m2 CLR
01:43 7.5 °F 5.5 °F 1020.5 in Calm     87 % 0.0 in 0.0 W/m2 CLR
01:48 7.5 °F 5.5 °F 1020.5 in Calm     87 % 0.0 in 0.0 W/m2 CLR
01:53 7.6 °F 5.6 °F 1020.9 in Calm     87 % 0.0 in 0.0 W/m2 CLR
01:58 7.6 °F 5.6 °F 1020.9 in Calm     87 % 0.0 in 0.0 W/m2 CLR
02:04 7.6 °F 5.6 °F 1020.5 in Calm     87 % 0.0 in 0.0 W/m2 CLR
02:09 7.6 °F 5.6 °F 1020.9 in Calm     87 % 0.0 in 0.0 W/m2 CLR
02:14 7.6 °F 5.6 °F 1020.5 in Calm     87 % 0.0 in 0.0 W/m2 CLR
02:19 7.6 °F 5.6 °F 1020.9 in Calm     87 % 0.0 in 0.0 W/m2 CLR
02:24 7.7 °F 5.7 °F 1020.9 in Calm     87 % 0.0 in 0.0 W/m2 CLR
02:29 7.7 °F 5.7 °F 1020.5 in Calm     87 % 0.0 in 0.0 W/m2 CLR
02:34 7.7 °F 5.7 °F 1020.9 in Calm     87 % 0.0 in 0.0 W/m2 CLR
02:39 7.7 °F 5.7 °F 1020.9 in Calm     87 % 0.0 in 0.0 W/m2 CLR
02:44 7.6 °F 5.4 °F 1020.9 in Calm     86 % 0.0 in 0.0 W/m2 CLR
02:49 7.6 °F 5.6 °F 1020.9 in Calm     87 % 0.0 in 0.0 W/m2 CLR
02:54 7.4 °F 5.4 °F 1020.9 in Calm     87 % 0.0 in 0.0 W/m2 CLR
02:59 7.4 °F 5.4 °F 1020.5 in Calm     87 % 0.0 in 0.0 W/m2 CLR
03:04 7.4 °F 5.4 °F 1020.5 in Calm     87 % 0.0 in 0.0 W/m2 CLR
03:09 7.4 °F 5.6 °F 1020.5 in Calm     88 % 0.0 in 0.0 W/m2 CLR
03:14 7.4 °F 5.6 °F 1020.5 in Calm     88 % 0.0 in 0.0 W/m2 CLR
03:19 7.3 °F 5.3 °F 1020.5 in Calm     87 % 0.0 in 0.0 W/m2 CLR
03:24 7.3 °F 5.5 °F 1020.2 in Calm     88 % 0.0 in 0.0 W/m2 CLR
03:29 7.3 °F 5.5 °F 1020.2 in Calm     88 % 0.0 in 0.0 W/m2 CLR
03:34 7.4 °F 5.6 °F 1020.2 in Calm     88 % 0.0 in 0.0 W/m2 CLR
03:39 7.5 °F 5.7 °F 1020.2 in Calm     88 % 0.0 in 0.0 W/m2 CLR
03:44 7.5 °F 5.5 °F 1020.2 in Calm     87 % 0.0 in 0.0 W/m2 CLR
03:49 7.4 °F 5.4 °F 1019.9 in Calm     87 % 0.0 in 0.0 W/m2 CLR
03:54 7.3 °F 5.3 °F 1019.9 in Calm     87 % 0.0 in 0.0 W/m2 CLR
03:59 7.3 °F 5.3 °F 1019.9 in Calm     87 % 0.0 in 0.0 W/m2 CLR
04:04 7.3 °F 5.3 °F 1019.9 in Calm     87 % 0.0 in 0.0 W/m2 CLR
04:09 7.3 °F 5.3 °F 1019.9 in Calm     87 % 0.0 in 0.0 W/m2 CLR
04:14 7.4 °F 5.4 °F 1019.9 in Calm     87 % 0.0 in 0.0 W/m2 CLR
04:19 7.4 °F 5.4 °F 1019.9 in Calm     87 % 0.0 in 0.0 W/m2 CLR
04:24 7.6 °F 5.4 °F 1019.9 in Calm     86 % 0.0 in 0.0 W/m2 CLR
04:29 7.7 °F 5.5 °F 1019.9 in Calm     86 % 0.0 in 0.0 W/m2 CLR
04:34 7.7 °F 5.3 °F 1019.9 in Calm     85 % 0.0 in 0.0 W/m2 CLR
04:39 7.8 °F 5.6 °F 1019.9 in Calm     86 % 0.0 in 0.0 W/m2 CLR
04:44 7.7 °F 5.3 °F 1019.9 in Calm     85 % 0.0 in 0.0 W/m2 CLR
04:49 7.6 °F 5.2 °F 1019.9 in Calm     85 % 0.0 in 0.0 W/m2 CLR
04:54 7.6 °F 5.2 °F 1019.9 in Calm     85 % 0.0 in 0.0 W/m2 CLR
04:59 7.3 °F 5.0 °F 1019.9 in Calm     85 % 0.0 in 0.0 W/m2 CLR
05:04 7.3 °F 5.2 °F 1019.9 in Calm     86 % 0.0 in 0.0 W/m2 CLR
05:09 7.4 °F 5.2 °F 1019.9 in Calm     86 % 0.0 in 0.0 W/m2 CLR
05:14 7.4 °F 5.2 °F 1019.9 in Calm     86 % 0.0 in 0.0 W/m2 CLR
05:19 7.4 °F 5.2 °F 1019.9 in Calm     86 % 0.0 in 0.0 W/m2 CLR
05:24 7.4 °F 5.2 °F 1019.9 in Calm     86 % 0.0 in 0.0 W/m2 CLR
05:29 7.3 °F 5.2 °F 1019.9 in Calm     86 % 0.0 in 0.0 W/m2 CLR
05:34 7.3 °F 4.9 °F 1019.9 in Calm     85 % 0.0 in 0.0 W/m2 CLR
05:39 7.3 °F 5.1 °F 1019.9 in Calm     86 % 0.0 in 0.0 W/m2 CLR
05:44 7.2 °F 5.1 °F 1019.9 in Calm     86 % 0.0 in 0.0 W/m2 CLR
05:49 7.1 °F 4.9 °F 1019.9 in ENE 3.7 mph 3.7 mph 86 % 0.0 in 0.0 W/m2 CLR
05:54 7.0 °F 4.8 °F 1020.2 in Calm     86 % 0.0 in 0.0 W/m2 CLR
05:55 7.0 °F 4.8 °F 1019.9 in Calm     86 % 0.0 in 0.0 W/m2 CLR
06:00 6.8 °F 4.5 °F 1019.9 in Calm     85 % 0.0 in 0.0 W/m2 CLR
06:05 6.6 °F 4.4 °F 1020.2 in Calm     86 % 0.0 in 0.0 W/m2 CLR
06:10 6.4 °F 4.4 °F 1020.2 in Calm     87 % 0.0 in 0.0 W/m2 CLR
06:15 6.6 °F 4.7 °F 1020.2 in Calm     88 % 0.0 in 0.0 W/m2 CLR
06:20 6.7 °F 4.7 °F 1020.2 in Calm     87 % 0.0 in 0.0 W/m2 CLR
06:25 6.6 °F 4.4 °F 1020.2 in Calm     86 % 0.0 in 0.0 W/m2 CLR
06:30 6.6 °F 4.6 °F 1020.2 in Calm     87 % 0.0 in 0.0 W/m2 CLR
06:35 6.7 °F 4.7 °F 1020.2 in Calm     87 % 0.0 in 0.0 W/m2 CLR
06:40 6.7 °F 4.7 °F 1020.2 in Calm     87 % 0.0 in 0.0 W/m2 CLR
06:45 6.6 °F 4.4 °F 1020.2 in Calm     86 % 0.0 in 0.0 W/m2 CLR
06:50 6.4 °F 4.4 °F 1020.2 in Calm     87 % 0.0 in 0.0 W/m2 CLR
06:55 6.3 °F 4.2 °F 1020.2 in Calm     86 % 0.0 in 0.0 W/m2 CLR
07:00 6.2 °F 4.2 °F 1020.2 in Calm     87 % 0.0 in 0.0 W/m2 CLR
07:05 6.3 °F 4.5 °F 1020.2 in Calm     88 % 0.0 in 0.0 W/m2 CLR
07:10 6.6 °F 4.7 °F 1020.2 in Calm     88 % 0.0 in 0.0 W/m2 CLR
07:15 6.4 °F 4.2 °F 1020.5 in Calm     86 % 0.0 in 0.0 W/m2 CLR
07:20 6.1 °F 3.9 °F 1020.5 in Calm     86 % 0.0 in 0.0 W/m2 CLR
07:25 6.0 °F 4.0 °F 1020.5 in Calm     87 % 0.0 in 0.0 W/m2 OVC
07:30 5.9 °F 3.9 °F 1020.5 in Calm     87 % 0.0 in 0.0 W/m2 OVC
07:35 5.9 °F 3.9 °F 1020.5 in Calm     87 % 0.0 in 0.0 W/m2 OVC
07:40 5.8 °F 3.8 °F 1020.5 in Calm     87 % 0.0 in 7.0 W/m2 OVC
07:45 5.7 °F 3.9 °F 1020.5 in Calm     88 % 0.0 in 11.0 W/m2 BKN
07:50 5.8 °F 3.9 °F 1020.5 in Calm     88 % 0.0 in 14.0 W/m2 BKN
07:55 5.8 °F 4.0 °F 1020.5 in Calm     88 % 0.0 in 18.0 W/m2 BKN
08:00 5.9 °F 4.1 °F 1020.9 in Calm     88 % 0.0 in 23.0 W/m2 BKN
08:05 5.9 °F 4.1 °F 1020.9 in Calm     88 % 0.0 in 40.0 W/m2 BKN
08:10 6.0 °F 4.2 °F 1020.9 in Calm     88 % 0.0 in 56.0 W/m2 SCT
08:15 6.2 °F 4.4 °F 1020.9 in Calm     88 % 0.0 in 81.0 W/m2 FEW
08:20 6.4 °F 4.6 °F 1020.9 in Calm     88 % 0.0 in 62.0 W/m2 SCT
08:25 6.6 °F 4.6 °F 1020.9 in Calm     87 % 0.0 in 69.0 W/m2 FEW
08:30 6.6 °F 4.6 °F 1021.2 in Calm     87 % 0.0 in 77.0 W/m2 FEW
08:35 6.9 °F 4.9 °F 1020.9 in Calm     87 % 0.0 in 130.0 W/m2 FEW
08:40 7.1 °F 4.9 °F 1020.9 in Calm     86 % 0.0 in 167.0 W/m2 CLR
08:45 7.4 °F 5.4 °F 1020.9 in Calm     87 % 0.0 in 114.0 W/m2 CLR
08:50 7.7 °F 5.3 °F 1021.2 in Calm     85 % 0.0 in 127.0 W/m2 CLR
08:55 7.7 °F 5.1 °F 1021.2 in Calm     84 % 0.0 in 113.0 W/m2 CLR
09:00 7.7 °F 5.3 °F 1021.2 in Calm     85 % 0.0 in 118.0 W/m2 CLR
09:05 7.8 °F 5.4 °F 1021.2 in Calm     85 % 0.0 in 123.0 W/m2 CLR
09:11 8.1 °F 5.7 °F 1021.2 in Calm     85 % 0.0 in 118.0 W/m2 CLR
09:16 8.1 °F 5.7 °F 1021.2 in Calm     85 % 0.0 in 123.0 W/m2 CLR
09:21 8.3 °F 5.9 °F 1021.2 in Calm     85 % 0.0 in 125.0 W/m2 CLR
09:26 8.4 °F 6.1 °F 1021.2 in Calm     85 % 0.0 in 130.0 W/m2 CLR
09:31 8.6 °F 6.1 °F 1021.2 in Calm     84 % 0.0 in 139.0 W/m2 CLR
09:36 8.8 °F 6.3 °F 1021.2 in NNE 3.7 mph 3.7 mph 84 % 0.0 in 151.0 W/m2 CLR
09:41 8.9 °F 6.4 °F 1021.6 in Calm     84 % 0.0 in 183.0 W/m2 CLR
09:46 9.2 °F 6.7 °F 1021.6 in Calm     84 % 0.0 in 211.0 W/m2 CLR
09:51 9.5 °F 6.8 °F 1021.6 in Calm     83 % 0.0 in 204.0 W/m2 CLR
09:56 9.8 °F 6.9 °F 1021.6 in Calm     82 % 0.0 in 214.0 W/m2 CLR
10:01 10.1 °F 7.0 °F 1021.6 in Calm     81 % 0.0 in 315.0 W/m2 CLR
10:06 10.3 °F 7.1 °F 1021.6 in Calm     80 % 0.0 in 313.0 W/m2 CLR
10:11 10.6 °F 7.2 °F 1021.6 in Calm     80 % 0.0 in 239.0 W/m2 CLR
10:16 10.8 °F 7.3 °F 1021.6 in Calm     79 % 0.0 in 262.0 W/m2 CLR
10:21 11.2 °F 7.7 °F 1021.6 in Calm     79 % 0.0 in 267.0 W/m2 CLR
10:26 11.6 °F 7.8 °F 1021.6 in Calm     78 % 0.0 in 287.0 W/m2 CLR
10:31 11.9 °F 7.8 °F 1021.2 in Calm     76 % 0.0 in 297.0 W/m2 CLR
10:36 12.2 °F 7.7 °F 1021.6 in Calm     74 % 0.0 in 367.0 W/m2 CLR
10:41 12.4 °F 7.9 °F 1021.6 in Calm     74 % 0.0 in 388.0 W/m2 CLR
10:46 12.7 °F 8.2 °F 1021.6 in Calm     74 % 0.0 in 531.0 W/m2 CLR
10:51 13.2 °F 8.4 °F 1021.6 in Calm     73 % 0.0 in 396.0 W/m2 CLR
10:56 13.5 °F 8.1 °F 1021.2 in Calm     70 % 0.0 in 452.0 W/m2 CLR
11:01 13.9 °F 8.5 °F 1021.2 in Calm     70 % 0.0 in 559.0 W/m2 CLR
11:06 14.5 °F 8.2 °F 1021.2 in Calm     66 % 0.0 in 733.0 W/m2 CLR
11:11 14.9 °F 8.4 °F 1021.2 in Calm     65 % 0.0 in 724.0 W/m2 CLR
11:16 15.6 °F 8.6 °F 1020.9 in Calm     63 % 0.0 in 640.0 W/m2 CLR
11:21 15.8 °F 7.6 °F 1020.9 in NW 20.4 mph 20.4 mph 58 % 0.0 in 608.0 W/m2 CLR
11:26 15.7 °F 7.2 °F 1020.9 in NW 13.0 mph 13.0 mph 57 % 0.0 in 387.0 W/m2 CLR
11:31 15.4 °F 7.4 °F 1020.9 in WNW 14.8 mph 14.8 mph 59 % 0.0 in 204.0 W/m2 CLR
11:36 15.1 °F 7.2 °F 1020.9 in NNW 14.8 mph 14.8 mph 59 % 0.0 in 408.0 W/m2 CLR
11:41 14.9 °F 6.7 °F 1020.9 in NW 16.7 mph 16.7 mph 58 % 0.0 in 345.0 W/m2 CLR
11:46 14.9 °F 6.7 °F 1020.9 in NW 16.1 mph 16.1 mph 58 % 0.0 in 248.0 W/m2 CLR
11:51 14.8 °F 6.9 °F 1020.9 in NNW 14.8 mph 14.8 mph 59 % 0.0 in 195.0 W/m2 CLR
11:56 14.8 °F 6.8 °F 1020.9 in NW 11.1 mph 11.1 mph 59 % 0.0 in 353.0 W/m2 CLR
12:01 14.9 °F 7.0 °F 1020.9 in NNW 18.5 mph 18.5 mph 59 % 0.0 in 548.0 W/m2 CLR
12:06 15.2 °F 7.0 °F 1020.9 in NW 11.1 mph 11.1 mph 58 % 0.0 in 323.0 W/m2 CLR
12:11 15.3 °F 7.1 °F 1020.5 in NW 9.7 mph 9.7 mph 58 % 0.0 in 251.0 W/m2 CLR
12:16 15.3 °F 7.1 °F 1020.5 in NW 9.7 mph 9.7 mph 58 % 0.0 in 478.0 W/m2 CLR
12:21 15.4 °F 6.7 °F 1020.5 in NNW 9.3 mph 9.3 mph 56 % 0.0 in 475.0 W/m2 CLR
12:26 15.4 °F 6.7 °F 1020.5 in WNW 9.7 mph 9.7 mph 56 % 0.0 in 529.0 W/m2 CLR
12:31 15.4 °F 6.7 °F 1020.5 in NW 3.7 mph 3.7 mph 56 % 0.0 in 227.0 W/m2 CLR
12:36 15.7 °F 7.4 °F 1020.2 in West 9.3 mph 9.3 mph 58 % 0.0 in 689.0 W/m2 CLR
12:41 15.9 °F 6.9 °F 1020.2 in NW 5.6 mph 5.6 mph 55 % 0.0 in 679.0 W/m2 CLR
12:46 16.1 °F 7.1 °F 1020.2 in NW 5.6 mph 5.6 mph 55 % 0.0 in 580.0 W/m2 CLR
12:51 16.3 °F 7.6 °F 1020.2 in WNW 9.3 mph 9.3 mph 56 % 0.0 in 666.0 W/m2 CLR
12:56 16.6 °F 7.2 °F 1019.9 in WNW 9.3 mph 9.3 mph 54 % 0.0 in 664.0 W/m2 CLR
13:01 16.7 °F 6.8 °F 1019.9 in NNE 3.7 mph   52 % 0.0 in 663.0 W/m2 CLR
13:06 16.9 °F 7.2 °F 1019.9 in NE 5.6 mph 5.6 mph 53 % 0.0 in 666.0 W/m2 CLR
13:16 17.1 °F 7.4 °F 1019.5 in NE 5.6 mph   53 % 0.0 in 664.0 W/m2 CLR
13:21 17.2 °F 7.5 °F 1019.2 in Calm   0.3 mph 53 % 0.0 in 668.0 W/m2 CLR
13:26 17.4 °F 7.7 °F 1019.2 in ENE 7.4 mph 7.4 mph 53 % 0.0 in 663.0 W/m2 CLR
13:31 17.7 °F 7.4 °F 1019.2 in Calm     51 % 0.0 in 661.0 W/m2 CLR
13:36 17.7 °F 7.4 °F 1019.2 in Calm     51 % 0.0 in 661.0 W/m2 CLR
13:41 17.6 °F 7.6 °F 1018.8 in ENE 5.6 mph 5.6 mph 52 % 0.0 in 659.0 W/m2 CLR
13:46 17.6 °F 7.3 °F 1018.8 in ENE 6.4 mph 6.4 mph 51 % 0.0 in 656.0 W/m2 CLR
13:51 17.8 °F 7.8 °F 1018.8 in East 8.0 mph 8.0 mph 52 % 0.0 in 654.0 W/m2 CLR
13:56 17.8 °F 7.5 °F 1018.5 in East 6.4 mph 6.4 mph 51 % 0.0 in 650.0 W/m2 CLR
14:01 17.6 °F 7.3 °F 1018.5 in ESE 6.4 mph 6.4 mph 51 % 0.0 in 647.0 W/m2 CLR
14:11 17.9 °F 7.9 °F 1018.5 in NE 11.3 mph 11.3 mph 52 % 0.0 in 640.0 W/m2 CLR
14:16 18.0 °F 7.4 °F 1018.2 in Calm     50 % 0.0 in 633.0 W/m2 CLR
14:21 18.3 °F 7.7 °F 1018.2 in Calm     50 % 0.0 in 629.0 W/m2 CLR
14:26 18.3 °F 7.4 °F 1018.2 in SE 5.6 mph 5.6 mph 49 % 0.0 in 624.0 W/m2 CLR
14:31 18.3 °F 7.7 °F 1018.2 in NE 7.4 mph 7.4 mph 50 % 0.0 in 617.0 W/m2 CLR
14:36 18.3 °F 7.7 °F 1018.2 in ENE 9.3 mph 9.3 mph 50 % 0.0 in 610.0 W/m2 CLR
14:41 18.5 °F 7.9 °F 1017.8 in NE 8.0 mph 8.0 mph 50 % 0.0 in 605.0 W/m2 CLR
14:46 18.4 °F 7.5 °F 1017.8 in Calm     49 % 0.0 in 599.0 W/m2 CLR
14:51 18.4 °F 7.2 °F 1017.8 in Calm     48 % 0.0 in 591.0 W/m2 CLR
14:56 18.5 °F 7.6 °F 1017.5 in Calm     49 % 0.0 in 582.0 W/m2 CLR
15:01 18.7 °F 8.1 °F 1017.5 in NNE 11.3 mph 11.3 mph 50 % 0.0 in 573.0 W/m2 CLR
15:06 18.6 °F 7.4 °F 1017.5 in NNE 9.3 mph 9.3 mph 48 % 0.0 in 564.0 W/m2 CLR
15:07 18.6 °F 7.4 °F 1017.5 in NNE 7.4 mph 7.4 mph 48 % 0.0 in 563.0 W/m2 CLR
15:12 18.5 °F 7.3 °F 1017.5 in North 8.0 mph 8.0 mph 48 % 0.0 in 554.0 W/m2 CLR
15:17 18.6 °F 7.3 °F 1017.2 in NE 9.3 mph 9.3 mph 48 % 0.0 in 545.0 W/m2 CLR
15:22 18.7 °F 7.5 °F 1017.2 in NNE 5.6 mph 5.6 mph 48 % 0.0 in 534.0 W/m2 CLR
15:27 18.9 °F 7.4 °F 1017.2 in ENE 5.6 mph 5.6 mph 47 % 0.0 in 522.0 W/m2 CLR
15:32 19.0 °F 7.1 °F 1017.2 in Calm     46 % 0.0 in 512.0 W/m2 CLR
15:37 18.9 °F 7.4 °F 1017.2 in NE 7.4 mph 7.4 mph 47 % 0.0 in 501.0 W/m2 CLR
15:42 19.0 °F 7.7 °F 1017.2 in Calm     48 % 0.0 in 490.0 W/m2 CLR
15:47 19.2 °F 7.3 °F 1017.2 in NE 11.1 mph 11.1 mph 46 % 0.0 in 480.0 W/m2 CLR
15:52 19.1 °F 7.2 °F 1017.2 in NE 13.0 mph 13.0 mph 46 % 0.0 in 466.0 W/m2 CLR
15:57 19.0 °F 7.4 °F 1017.2 in NE 11.3 mph 11.3 mph 47 % 0.0 in 455.0 W/m2 CLR
16:02 19.0 °F 7.4 °F 1017.2 in NNE 13.0 mph 13.0 mph 47 % 0.0 in 443.0 W/m2 CLR
16:07 18.9 °F 7.0 °F 1017.2 in ENE 7.4 mph 7.4 mph 46 % 0.0 in 432.0 W/m2 CLR
16:12 19.0 °F 7.7 °F 1016.8 in North 5.6 mph 5.6 mph 48 % 0.0 in 418.0 W/m2 CLR
16:17 19.1 °F 7.2 °F 1016.8 in NE 5.6 mph 5.6 mph 46 % 0.0 in 404.0 W/m2 CLR
16:22 19.2 °F 7.0 °F 1016.8 in ENE 3.7 mph 3.7 mph 45 % 0.0 in 392.0 W/m2 CLR
16:27 19.3 °F 7.1 °F 1016.8 in NNE 9.3 mph 9.3 mph 45 % 0.0 in 380.0 W/m2 CLR
16:32 19.2 °F 6.9 °F 1016.8 in NE 12.9 mph 12.9 mph 45 % 0.0 in 367.0 W/m2 CLR
16:37 19.0 °F 6.8 °F 1016.8 in NNE 13.0 mph 13.0 mph 45 % 0.0 in 352.0 W/m2 CLR
16:42 18.9 °F 6.7 °F 1016.8 in NE 9.3 mph 9.3 mph 45 % 0.0 in 338.0 W/m2 CLR
16:47 18.9 °F 6.7 °F 1016.8 in ENE 9.3 mph 9.3 mph 45 % 0.0 in 323.0 W/m2 CLR
16:52 19.0 °F 6.4 °F 1016.5 in Calm     44 % 0.0 in 309.0 W/m2 CLR
16:57 19.0 °F 6.4 °F 1016.5 in NE 5.6 mph 5.6 mph 44 % 0.0 in 292.0 W/m2 CLR
17:02 19.1 °F 6.8 °F 1016.5 in NE 5.6 mph 5.6 mph 45 % 0.0 in 279.0 W/m2 CLR
17:07 19.1 °F 6.8 °F 1016.5 in NE 9.7 mph 9.7 mph 45 % 0.0 in 264.0 W/m2 CLR
17:12 19.0 °F 6.4 °F 1016.5 in East 6.4 mph 6.4 mph 44 % 0.0 in 244.0 W/m2 CLR
17:18 18.8 °F 6.3 °F 1016.5 in ENE 5.6 mph 5.6 mph 44 % 0.0 in 229.0 W/m2 CLR
17:22 18.7 °F 6.8 °F 1016.5 in ENE 5.6 mph 5.6 mph 46 % 0.0 in 213.0 W/m2 CLR
17:28 18.7 °F 6.8 °F 1016.5 in East 5.6 mph   46 % 0.0 in 195.0 W/m2 CLR
17:33 18.6 °F 6.7 °F 1016.1 in ENE 8.0 mph 8.0 mph 46 % 0.0 in 176.0 W/m2 CLR
17:38 18.5 °F 6.7 °F 1016.1 in East 1.6 mph 1.6 mph 46 % 0.0 in 158.0 W/m2 CLR
17:43 18.5 °F 7.6 °F 1016.1 in ENE 9.7 mph 9.7 mph 49 % 0.0 in 141.0 W/m2 CLR
17:48 18.4 °F 7.8 °F 1016.1 in SE 8.0 mph 8.0 mph 50 % 0.0 in 125.0 W/m2 CLR
17:53 18.3 °F 8.0 °F 1016.5 in East 9.7 mph 9.7 mph 51 % 0.0 in 107.0 W/m2 CLR
17:58 18.2 °F 8.4 °F 1016.1 in SE 13.0 mph 13.0 mph 53 % 0.0 in 88.0 W/m2 CLR
18:03 18.1 °F 8.6 °F 1016.1 in SE 11.1 mph 11.1 mph 54 % 0.0 in 72.0 W/m2 FEW
18:08 17.9 °F 8.7 °F 1016.1 in ESE 11.1 mph 11.1 mph 55 % 0.0 in 54.0 W/m2 SCT
18:13 17.7 °F 8.8 °F 1016.1 in ESE 11.1 mph 11.1 mph 56 % 0.0 in 49.0 W/m2 SCT
18:18 17.6 °F 8.7 °F 1016.5 in SE 11.3 mph 11.3 mph 56 % 0.0 in 39.0 W/m2 BKN
18:23 17.4 °F 8.8 °F 1016.5 in ESE 11.1 mph 11.1 mph 57 % 0.0 in 25.0 W/m2 BKN
18:28 17.2 °F 8.9 °F 1016.5 in SE 9.3 mph 9.3 mph 58 % 0.0 in 21.0 W/m2 BKN
18:33 16.9 °F 8.6 °F 1016.5 in SE 7.4 mph 7.4 mph 58 % 0.0 in 16.0 W/m2 BKN
18:38 16.7 °F 8.7 °F 1016.5 in SSE 5.6 mph 5.6 mph 59 % 0.0 in 11.0 W/m2 BKN
18:43 16.5 °F 8.7 °F 1016.5 in Calm     60 % 0.0 in 9.0 W/m2 BKN
18:48 16.3 °F 8.8 °F 1016.5 in Calm     61 % 0.0 in 5.0 W/m2 OVC
18:53 16.2 °F 8.9 °F 1016.5 in Calm     62 % 0.0 in 0.0 W/m2 OVC
18:58 16.0 °F 8.9 °F 1016.5 in Calm     63 % 0.0 in 0.0 W/m2 OVC
19:03 15.8 °F 9.1 °F 1016.5 in Calm     64 % 0.0 in 0.0 W/m2 CLR
19:08 15.7 °F 9.2 °F 1016.5 in Calm     65 % 0.0 in 0.0 W/m2 CLR
19:13 15.5 °F 9.4 °F 1016.5 in ESE 5.6 mph 5.6 mph 67 % 0.0 in 0.0 W/m2 CLR
19:18 15.4 °F 9.7 °F 1016.8 in ESE 1.6 mph 1.6 mph 69 % 0.0 in 0.0 W/m2 CLR
19:23 15.3 °F 9.8 °F 1016.8 in ESE 5.6 mph 5.6 mph 70 % 0.0 in 0.0 W/m2 CLR
19:28 15.2 °F 9.7 °F 1016.8 in ESE 5.6 mph 5.6 mph 70 % 0.0 in 0.0 W/m2 CLR
19:33 15.1 °F 9.8 °F 1016.8 in Calm     71 % 0.0 in 0.0 W/m2 CLR
19:38 14.9 °F 9.7 °F 1016.8 in Calm     71 % 0.0 in 0.0 W/m2 CLR
19:43 14.6 °F 9.4 °F 1016.8 in Calm     71 % 0.0 in 0.0 W/m2 CLR
19:48 14.3 °F 9.3 °F 1016.8 in Calm     72 % 0.0 in 0.0 W/m2 CLR
19:53 14.1 °F 9.1 °F 1016.8 in Calm     72 % 0.0 in 0.0 W/m2 CLR
19:58 13.9 °F 9.1 °F 1016.8 in Calm     73 % 0.0 in 0.0 W/m2 CLR
20:03 13.8 °F 9.3 °F 1016.8 in Calm     74 % 0.0 in 0.0 W/m2 CLR
20:08 13.8 °F 9.3 °F 1017.2 in Calm     74 % 0.0 in 0.0 W/m2 CLR
20:13 13.9 °F 9.2 °F 1016.8 in SSE 1.9 mph 1.9 mph 73 % 0.0 in 0.0 W/m2 CLR
20:18 14.0 °F 8.8 °F 1016.8 in Calm     71 % 0.0 in 0.0 W/m2 CLR
20:23 14.0 °F 8.8 °F 1016.8 in Calm     71 % 0.0 in 0.0 W/m2 CLR
20:28 14.0 °F 8.6 °F 1017.2 in Calm     70 % 0.0 in 0.0 W/m2 CLR
20:33 13.8 °F 8.4 °F 1016.8 in Calm     70 % 0.0 in 0.0 W/m2 CLR
20:38 13.6 °F 8.4 °F 1016.8 in South 5.6 mph 5.6 mph 71 % 0.0 in 0.0 W/m2 CLR
20:43 13.5 °F 8.3 °F 1016.8 in South 5.6 mph 5.6 mph 71 % 0.0 in 0.0 W/m2 CLR
20:48 13.5 °F 8.1 °F 1016.8 in South 7.4 mph 7.4 mph 70 % 0.0 in 0.0 W/m2 CLR
20:53 13.6 °F 8.0 °F 1016.8 in Calm     69 % 0.0 in 0.0 W/m2 CLR
20:58 13.4 °F 8.0 °F 1016.8 in Calm     70 % 0.0 in 0.0 W/m2 CLR
21:03 13.2 °F 7.9 °F 1016.8 in Calm     70 % 0.0 in 0.0 W/m2 CLR
21:08 13.2 °F 7.8 °F 1016.8 in Calm     70 % 0.0 in 0.0 W/m2 CLR
21:13 12.9 °F 7.8 °F 1016.5 in Calm     71 % 0.0 in 0.0 W/m2 CLR
21:18 12.6 °F 7.7 °F 1016.8 in Calm     72 % 0.0 in 0.0 W/m2 CLR
21:23 12.4 °F 7.7 °F 1016.8 in Calm     73 % 0.0 in 0.0 W/m2 CLR
21:28 12.2 °F 7.4 °F 1016.8 in Calm     73 % 0.0 in 0.0 W/m2 CLR
21:33 11.9 °F 7.4 °F 1016.8 in Calm     74 % 0.0 in 0.0 W/m2 CLR
21:38 11.7 °F 7.4 °F 1016.8 in Calm     75 % 0.0 in 0.0 W/m2 CLR
21:43 11.4 °F 7.3 °F 1016.8 in Calm     76 % 0.0 in 0.0 W/m2 CLR
21:48 11.1 °F 7.4 °F 1016.8 in Calm     78 % 0.0 in 0.0 W/m2 CLR
21:53 10.8 °F 7.3 °F 1016.8 in Calm     79 % 0.0 in 0.0 W/m2 CLR
21:55 10.7 °F 7.2 °F 1016.8 in Calm     79 % 0.0 in 0.0 W/m2 CLR
22:00 10.5 °F 7.2 °F 1016.8 in Calm     80 % 0.0 in 0.0 W/m2 CLR
22:05 10.2 °F 6.9 °F 1016.8 in Calm     80 % 0.0 in 0.0 W/m2 CLR
22:10 9.9 °F 6.8 °F 1016.8 in Calm     81 % 0.0 in 0.0 W/m2 CLR
22:15 9.7 °F 6.6 °F 1016.8 in Calm     81 % 0.0 in 0.0 W/m2 CLR
22:20 9.4 °F 6.4 °F 1016.8 in Calm     82 % 0.0 in 0.0 W/m2 CLR
22:25 9.3 °F 6.4 °F 1016.8 in Calm     82 % 0.0 in 0.0 W/m2 CLR
22:30 9.2 °F 6.4 °F 1016.8 in Calm     83 % 0.0 in 0.0 W/m2 CLR
22:35 9.1 °F 6.3 °F 1016.8 in Calm     83 % 0.0 in 0.0 W/m2 CLR
22:40 8.9 °F 6.3 °F 1016.8 in Calm     84 % 0.0 in 0.0 W/m2 CLR
22:46 8.8 °F 6.2 °F 1016.8 in Calm     84 % 0.0 in 0.0 W/m2 CLR
22:51 8.6 °F 6.1 °F 1016.8 in Calm     84 % 0.0 in 0.0 W/m2 CLR
22:56 8.5 °F 5.9 °F 1016.8 in Calm     84 % 0.0 in 0.0 W/m2 CLR
23:01 8.3 °F 5.7 °F 1016.8 in Calm     84 % 0.0 in 0.0 W/m2 CLR
23:06 8.2 °F 5.6 °F 1016.8 in Calm     84 % 0.0 in 0.0 W/m2 CLR
23:11 8.0 °F 5.6 °F 1016.8 in Calm     85 % 0.0 in 0.0 W/m2 CLR
23:16 7.9 °F 5.5 °F 1016.8 in Calm     85 % 0.0 in 0.0 W/m2 CLR
23:21 7.8 °F 5.6 °F 1016.8 in Calm     86 % 0.0 in 0.0 W/m2 CLR
23:26 7.7 °F 5.5 °F 1016.8 in Calm     86 % 0.0 in 0.0 W/m2 CLR
23:31 7.7 °F 5.7 °F 1016.8 in Calm     87 % 0.0 in 0.0 W/m2 CLR
23:36 7.6 °F 5.4 °F 1016.8 in Calm     86 % 0.0 in 0.0 W/m2 CLR
23:41 7.5 °F 5.3 °F 1016.8 in Calm     86 % 0.0 in 0.0 W/m2 CLR
23:46 7.3 °F 5.2 °F 1016.8 in Calm     86 % 0.0 in 0.0 W/m2 CLR
23:51 7.2 °F 5.2 °F 1016.8 in Calm     87 % 0.0 in 0.0 W/m2 CLR
23:56 7.2 °F 5.2 °F 1016.8 in Calm     87 % 0.0 in 0.0 W/m2 CLR
Lo Temps de Massalio
Compliments of Weather Underground - 1.25 mb